sensor_id;sensor_type;location;lat;lon;timestamp;P1;durP1;ratioP1;P2;durP2;ratioP2
49858;SDS011;35756;52.346;13.622;2022-12-24T00:02:10;18.55;;;7.28;;
49858;SDS011;35756;52.346;13.622;2022-12-24T00:04:35;16.98;;;6.65;;
49858;SDS011;35756;52.346;13.622;2022-12-24T00:07:00;18.02;;;7.95;;
49858;SDS011;35756;52.346;13.622;2022-12-24T00:09:26;15.07;;;7.30;;
49858;SDS011;35756;52.346;13.622;2022-12-24T00:11:51;17.15;;;8.10;;
49858;SDS011;35756;52.346;13.622;2022-12-24T00:14:16;15.27;;;7.20;;
49858;SDS011;35756;52.346;13.622;2022-12-24T00:16:41;16.92;;;7.22;;
49858;SDS011;35756;52.346;13.622;2022-12-24T00:19:07;18.40;;;8.10;;
49858;SDS011;35756;52.346;13.622;2022-12-24T00:21:32;15.05;;;7.07;;
49858;SDS011;35756;52.346;13.622;2022-12-24T00:23:57;18.05;;;7.15;;
49858;SDS011;35756;52.346;13.622;2022-12-24T00:26:22;13.18;;;6.13;;
49858;SDS011;35756;52.346;13.622;2022-12-24T00:28:48;17.33;;;7.32;;
49858;SDS011;35756;52.346;13.622;2022-12-24T00:31:14;11.23;;;5.82;;
49858;SDS011;35756;52.346;13.622;2022-12-24T00:33:41;11.57;;;6.47;;
49858;SDS011;35756;52.346;13.622;2022-12-24T00:36:06;13.38;;;6.40;;
49858;SDS011;35756;52.346;13.622;2022-12-24T00:38:32;13.30;;;5.80;;
49858;SDS011;35756;52.346;13.622;2022-12-24T00:40:58;10.25;;;6.07;;
49858;SDS011;35756;52.346;13.622;2022-12-24T00:43:24;11.57;;;5.53;;
49858;SDS011;35756;52.346;13.622;2022-12-24T00:45:49;9.77;;;5.65;;
49858;SDS011;35756;52.346;13.622;2022-12-24T00:48:15;11.07;;;5.68;;
49858;SDS011;35756;52.346;13.622;2022-12-24T00:50:40;13.65;;;5.85;;
49858;SDS011;35756;52.346;13.622;2022-12-24T00:53:05;12.50;;;5.85;;
49858;SDS011;35756;52.346;13.622;2022-12-24T00:55:31;9.20;;;5.13;;
49858;SDS011;35756;52.346;13.622;2022-12-24T00:57:56;12.25;;;6.00;;
49858;SDS011;35756;52.346;13.622;2022-12-24T01:00:21;11.88;;;6.05;;
49858;SDS011;35756;52.346;13.622;2022-12-24T01:02:47;11.32;;;5.65;;
49858;SDS011;35756;52.346;13.622;2022-12-24T01:05:12;10.60;;;5.43;;
49858;SDS011;35756;52.346;13.622;2022-12-24T01:07:38;12.07;;;5.25;;
49858;SDS011;35756;52.346;13.622;2022-12-24T01:10:06;9.32;;;5.15;;
49858;SDS011;35756;52.346;13.622;2022-12-24T01:12:32;12.95;;;4.90;;
49858;SDS011;35756;52.346;13.622;2022-12-24T01:15:04;11.30;;;5.82;;
49858;SDS011;35756;52.346;13.622;2022-12-24T01:17:35;8.57;;;5.13;;
49858;SDS011;35756;52.346;13.622;2022-12-24T01:20:01;10.65;;;5.50;;
49858;SDS011;35756;52.346;13.622;2022-12-24T01:22:31;10.73;;;5.90;;
49858;SDS011;35756;52.346;13.622;2022-12-24T01:24:56;10.82;;;5.55;;
49858;SDS011;35756;52.346;13.622;2022-12-24T01:27:27;8.63;;;5.10;;
49858;SDS011;35756;52.346;13.622;2022-12-24T01:29:52;10.98;;;5.32;;
49858;SDS011;35756;52.346;13.622;2022-12-24T01:32:18;9.88;;;5.75;;
49858;SDS011;35756;52.346;13.622;2022-12-24T01:34:44;9.45;;;5.07;;
49858;SDS011;35756;52.346;13.622;2022-12-24T01:37:09;10.30;;;5.82;;
49858;SDS011;35756;52.346;13.622;2022-12-24T01:39:34;9.98;;;5.50;;
49858;SDS011;35756;52.346;13.622;2022-12-24T01:42:00;9.15;;;5.32;;
49858;SDS011;35756;52.346;13.622;2022-12-24T01:44:46;10.63;;;5.30;;
49858;SDS011;35756;52.346;13.622;2022-12-24T01:47:19;9.27;;;5.47;;
49858;SDS011;35756;52.346;13.622;2022-12-24T01:49:56;8.30;;;5.13;;
49858;SDS011;35756;52.346;13.622;2022-12-24T01:52:25;7.93;;;4.63;;
49858;SDS011;35756;52.346;13.622;2022-12-24T01:54:57;9.18;;;5.55;;
49858;SDS011;35756;52.346;13.622;2022-12-24T01:57:26;10.82;;;5.88;;
49858;SDS011;35756;52.346;13.622;2022-12-24T01:59:55;10.95;;;5.47;;
49858;SDS011;35756;52.346;13.622;2022-12-24T02:02:22;9.52;;;5.25;;
49858;SDS011;35756;52.346;13.622;2022-12-24T02:04:50;9.38;;;5.30;;
49858;SDS011;35756;52.346;13.622;2022-12-24T02:07:20;10.77;;;5.25;;
49858;SDS011;35756;52.346;13.622;2022-12-24T02:09:45;9.88;;;5.47;;
49858;SDS011;35756;52.346;13.622;2022-12-24T02:12:11;9.27;;;6.05;;
49858;SDS011;35756;52.346;13.622;2022-12-24T02:14:36;10.63;;;5.68;;
49858;SDS011;35756;52.346;13.622;2022-12-24T02:17:09;9.80;;;6.10;;
49858;SDS011;35756;52.346;13.622;2022-12-24T02:25:34;10.98;;;5.70;;
49858;SDS011;35756;52.346;13.622;2022-12-24T02:28:33;9.50;;;6.00;;
49858;SDS011;35756;52.346;13.622;2022-12-24T02:31:14;13.27;;;6.25;;
49858;SDS011;35756;52.346;13.622;2022-12-24T02:33:46;11.05;;;6.50;;
49858;SDS011;35756;52.346;13.622;2022-12-24T02:39:10;11.50;;;6.07;;
49858;SDS011;35756;52.346;13.622;2022-12-24T02:41:42;10.15;;;5.88;;
49858;SDS011;35756;52.346;13.622;2022-12-24T02:44:31;11.10;;;6.33;;
49858;SDS011;35756;52.346;13.622;2022-12-24T02:47:01;12.95;;;6.22;;
49858;SDS011;35756;52.346;13.622;2022-12-24T02:49:27;13.70;;;6.68;;
49858;SDS011;35756;52.346;13.622;2022-12-24T02:51:53;12.73;;;6.88;;
49858;SDS011;35756;52.346;13.622;2022-12-24T02:54:18;12.77;;;7.18;;
49858;SDS011;35756;52.346;13.622;2022-12-24T02:56:46;14.30;;;7.78;;
49858;SDS011;35756;52.346;13.622;2022-12-24T03:02:44;16.23;;;8.27;;
49858;SDS011;35756;52.346;13.622;2022-12-24T03:08:00;15.60;;;8.10;;
49858;SDS011;35756;52.346;13.622;2022-12-24T03:10:43;15.27;;;8.50;;
49858;SDS011;35756;52.346;13.622;2022-12-24T03:13:15;20.42;;;9.00;;
49858;SDS011;35756;52.346;13.622;2022-12-24T03:15:41;17.10;;;9.35;;
49858;SDS011;35756;52.346;13.622;2022-12-24T03:18:08;17.27;;;9.30;;
49858;SDS011;35756;52.346;13.622;2022-12-24T03:20:36;19.60;;;9.38;;
49858;SDS011;35756;52.346;13.622;2022-12-24T03:23:03;17.92;;;9.40;;
49858;SDS011;35756;52.346;13.622;2022-12-24T03:25:28;17.45;;;8.85;;
49858;SDS011;35756;52.346;13.622;2022-12-24T03:27:55;18.02;;;9.70;;
49858;SDS011;35756;52.346;13.622;2022-12-24T03:30:21;18.05;;;9.88;;
49858;SDS011;35756;52.346;13.622;2022-12-24T03:32:46;19.30;;;9.70;;
49858;SDS011;35756;52.346;13.622;2022-12-24T03:35:11;20.25;;;10.15;;
49858;SDS011;35756;52.346;13.622;2022-12-24T03:37:37;21.33;;;9.55;;
49858;SDS011;35756;52.346;13.622;2022-12-24T03:40:03;18.23;;;9.27;;
49858;SDS011;35756;52.346;13.622;2022-12-24T03:42:29;21.77;;;9.75;;
49858;SDS011;35756;52.346;13.622;2022-12-24T03:44:55;19.17;;;10.23;;
49858;SDS011;35756;52.346;13.622;2022-12-24T03:47:20;18.48;;;9.18;;
49858;SDS011;35756;52.346;13.622;2022-12-24T03:49:45;19.85;;;10.27;;
49858;SDS011;35756;52.346;13.622;2022-12-24T03:52:10;18.38;;;9.63;;
49858;SDS011;35756;52.346;13.622;2022-12-24T03:54:36;18.00;;;9.82;;
49858;SDS011;35756;52.346;13.622;2022-12-24T03:57:01;19.98;;;9.77;;
49858;SDS011;35756;52.346;13.622;2022-12-24T03:59:26;19.63;;;9.43;;
49858;SDS011;35756;52.346;13.622;2022-12-24T04:01:52;20.15;;;9.82;;
49858;SDS011;35756;52.346;13.622;2022-12-24T04:04:17;20.70;;;10.80;;
49858;SDS011;35756;52.346;13.622;2022-12-24T04:06:42;17.92;;;9.90;;
49858;SDS011;35756;52.346;13.622;2022-12-24T04:09:07;21.45;;;10.30;;
49858;SDS011;35756;52.346;13.622;2022-12-24T04:11:33;18.10;;;9.52;;
49858;SDS011;35756;52.346;13.622;2022-12-24T04:13:58;20.42;;;10.05;;
49858;SDS011;35756;52.346;13.622;2022-12-24T04:16:24;19.17;;;9.95;;
49858;SDS011;35756;52.346;13.622;2022-12-24T04:18:49;22.42;;;10.13;;
49858;SDS011;35756;52.346;13.622;2022-12-24T04:21:14;21.13;;;9.85;;
49858;SDS011;35756;52.346;13.622;2022-12-24T04:23:40;20.25;;;9.73;;
49858;SDS011;35756;52.346;13.622;2022-12-24T04:26:08;20.30;;;9.68;;
49858;SDS011;35756;52.346;13.622;2022-12-24T04:28:36;20.20;;;9.52;;
49858;SDS011;35756;52.346;13.622;2022-12-24T04:31:03;21.73;;;10.52;;
49858;SDS011;35756;52.346;13.622;2022-12-24T04:33:30;21.10;;;9.90;;
49858;SDS011;35756;52.346;13.622;2022-12-24T04:36:02;21.73;;;10.00;;
49858;SDS011;35756;52.346;13.622;2022-12-24T04:38:28;21.00;;;9.93;;
49858;SDS011;35756;52.346;13.622;2022-12-24T04:40:58;20.38;;;10.07;;
49858;SDS011;35756;52.346;13.622;2022-12-24T04:43:24;22.80;;;10.20;;
49858;SDS011;35756;52.346;13.622;2022-12-24T04:45:50;19.63;;;10.43;;
49858;SDS011;35756;52.346;13.622;2022-12-24T04:48:15;21.00;;;9.68;;
49858;SDS011;35756;52.346;13.622;2022-12-24T04:50:41;21.70;;;9.60;;
49858;SDS011;35756;52.346;13.622;2022-12-24T04:53:06;17.63;;;9.05;;
49858;SDS011;35756;52.346;13.622;2022-12-24T04:55:31;21.50;;;9.35;;
49858;SDS011;35756;52.346;13.622;2022-12-24T04:57:56;20.20;;;9.85;;
49858;SDS011;35756;52.346;13.622;2022-12-24T05:00:22;17.75;;;9.85;;
49858;SDS011;35756;52.346;13.622;2022-12-24T05:02:47;20.90;;;10.02;;
49858;SDS011;35756;52.346;13.622;2022-12-24T05:05:12;20.52;;;10.52;;
49858;SDS011;35756;52.346;13.622;2022-12-24T05:07:38;22.63;;;10.60;;
49858;SDS011;35756;52.346;13.622;2022-12-24T05:10:03;22.85;;;9.55;;
49858;SDS011;35756;52.346;13.622;2022-12-24T05:12:29;20.35;;;10.15;;
49858;SDS011;35756;52.346;13.622;2022-12-24T05:14:54;25.83;;;10.63;;
49858;SDS011;35756;52.346;13.622;2022-12-24T05:17:20;20.27;;;10.32;;
49858;SDS011;35756;52.346;13.622;2022-12-24T05:19:45;19.13;;;9.45;;
49858;SDS011;35756;52.346;13.622;2022-12-24T05:22:10;22.40;;;11.00;;
49858;SDS011;35756;52.346;13.622;2022-12-24T05:24:54;22.98;;;10.10;;
49858;SDS011;35756;52.346;13.622;2022-12-24T05:27:38;19.83;;;9.68;;
49858;SDS011;35756;52.346;13.622;2022-12-24T05:30:03;19.80;;;9.68;;
49858;SDS011;35756;52.346;13.622;2022-12-24T05:32:29;20.98;;;10.80;;
49858;SDS011;35756;52.346;13.622;2022-12-24T05:34:54;23.23;;;10.05;;
49858;SDS011;35756;52.346;13.622;2022-12-24T05:37:20;23.45;;;10.10;;
49858;SDS011;35756;52.346;13.622;2022-12-24T05:39:45;21.45;;;10.30;;
49858;SDS011;35756;52.346;13.622;2022-12-24T05:42:10;19.92;;;9.85;;
49858;SDS011;35756;52.346;13.622;2022-12-24T05:44:35;20.70;;;10.18;;
49858;SDS011;35756;52.346;13.622;2022-12-24T05:47:01;20.58;;;9.50;;
49858;SDS011;35756;52.346;13.622;2022-12-24T05:49:26;18.83;;;9.70;;
49858;SDS011;35756;52.346;13.622;2022-12-24T05:51:52;23.40;;;9.80;;
49858;SDS011;35756;52.346;13.622;2022-12-24T05:54:18;21.42;;;9.85;;
49858;SDS011;35756;52.346;13.622;2022-12-24T05:56:43;20.08;;;9.18;;
49858;SDS011;35756;52.346;13.622;2022-12-24T05:59:08;20.73;;;10.45;;
49858;SDS011;35756;52.346;13.622;2022-12-24T06:01:33;20.80;;;9.80;;
49858;SDS011;35756;52.346;13.622;2022-12-24T06:03:59;24.45;;;10.45;;
49858;SDS011;35756;52.346;13.622;2022-12-24T06:06:25;20.50;;;10.07;;
49858;SDS011;35756;52.346;13.622;2022-12-24T06:08:51;16.83;;;9.18;;
49858;SDS011;35756;52.346;13.622;2022-12-24T06:11:18;19.77;;;8.85;;
49858;SDS011;35756;52.346;13.622;2022-12-24T06:13:44;22.85;;;10.25;;
49858;SDS011;35756;52.346;13.622;2022-12-24T06:16:11;19.98;;;9.35;;
49858;SDS011;35756;52.346;13.622;2022-12-24T06:18:37;19.65;;;9.20;;
49858;SDS011;35756;52.346;13.622;2022-12-24T06:21:03;24.55;;;9.80;;
49858;SDS011;35756;52.346;13.622;2022-12-24T06:23:30;20.08;;;9.30;;
49858;SDS011;35756;52.346;13.622;2022-12-24T06:25:57;20.73;;;9.18;;
49858;SDS011;35756;52.346;13.622;2022-12-24T06:28:24;22.17;;;8.82;;
49858;SDS011;35756;52.346;13.622;2022-12-24T06:30:50;20.35;;;8.90;;
49858;SDS011;35756;52.346;13.622;2022-12-24T06:33:15;22.17;;;9.40;;
49858;SDS011;35756;52.346;13.622;2022-12-24T06:35:41;21.52;;;9.85;;
49858;SDS011;35756;52.346;13.622;2022-12-24T06:38:08;18.08;;;8.48;;
49858;SDS011;35756;52.346;13.622;2022-12-24T06:40:34;18.23;;;9.20;;
49858;SDS011;35756;52.346;13.622;2022-12-24T06:42:59;20.90;;;8.77;;
49858;SDS011;35756;52.346;13.622;2022-12-24T06:45:24;19.55;;;9.10;;
49858;SDS011;35756;52.346;13.622;2022-12-24T06:47:51;22.67;;;9.45;;
49858;SDS011;35756;52.346;13.622;2022-12-24T06:50:16;23.65;;;9.88;;
49858;SDS011;35756;52.346;13.622;2022-12-24T06:52:41;18.95;;;8.82;;
49858;SDS011;35756;52.346;13.622;2022-12-24T06:55:07;21.52;;;9.70;;
49858;SDS011;35756;52.346;13.622;2022-12-24T06:57:32;28.45;;;10.77;;
49858;SDS011;35756;52.346;13.622;2022-12-24T06:59:57;26.50;;;11.02;;
49858;SDS011;35756;52.346;13.622;2022-12-24T07:02:23;25.15;;;10.52;;
49858;SDS011;35756;52.346;13.622;2022-12-24T07:04:48;23.17;;;10.00;;
49858;SDS011;35756;52.346;13.622;2022-12-24T07:07:14;25.02;;;10.85;;
49858;SDS011;35756;52.346;13.622;2022-12-24T07:09:39;23.33;;;10.25;;
49858;SDS011;35756;52.346;13.622;2022-12-24T07:12:04;23.83;;;9.52;;
49858;SDS011;35756;52.346;13.622;2022-12-24T07:14:30;23.20;;;9.57;;
49858;SDS011;35756;52.346;13.622;2022-12-24T07:16:55;22.77;;;9.88;;
49858;SDS011;35756;52.346;13.622;2022-12-24T07:19:22;23.80;;;11.20;;
49858;SDS011;35756;52.346;13.622;2022-12-24T07:21:47;22.42;;;10.80;;
49858;SDS011;35756;52.346;13.622;2022-12-24T07:24:13;22.48;;;9.80;;
49858;SDS011;35756;52.346;13.622;2022-12-24T07:26:39;22.23;;;9.90;;
49858;SDS011;35756;52.346;13.622;2022-12-24T07:29:04;26.20;;;11.50;;
49858;SDS011;35756;52.346;13.622;2022-12-24T07:31:29;24.13;;;10.15;;
49858;SDS011;35756;52.346;13.622;2022-12-24T07:33:55;29.02;;;10.85;;
49858;SDS011;35756;52.346;13.622;2022-12-24T07:36:20;23.75;;;10.70;;
49858;SDS011;35756;52.346;13.622;2022-12-24T07:38:46;25.45;;;11.45;;
49858;SDS011;35756;52.346;13.622;2022-12-24T07:41:11;24.10;;;10.82;;
49858;SDS011;35756;52.346;13.622;2022-12-24T07:43:37;27.98;;;11.57;;
49858;SDS011;35756;52.346;13.622;2022-12-24T07:46:02;29.08;;;10.75;;
49858;SDS011;35756;52.346;13.622;2022-12-24T07:48:28;23.52;;;10.05;;
49858;SDS011;35756;52.346;13.622;2022-12-24T07:50:55;43.30;;;12.68;;
49858;SDS011;35756;52.346;13.622;2022-12-24T07:53:20;22.15;;;10.23;;
49858;SDS011;35756;52.346;13.622;2022-12-24T07:55:46;25.30;;;11.00;;
49858;SDS011;35756;52.346;13.622;2022-12-24T07:58:11;24.92;;;10.02;;
49858;SDS011;35756;52.346;13.622;2022-12-24T08:00:36;23.60;;;10.32;;
49858;SDS011;35756;52.346;13.622;2022-12-24T08:03:02;26.45;;;11.50;;
49858;SDS011;35756;52.346;13.622;2022-12-24T08:05:27;21.25;;;9.48;;
49858;SDS011;35756;52.346;13.622;2022-12-24T08:07:53;25.88;;;9.55;;
49858;SDS011;35756;52.346;13.622;2022-12-24T08:10:18;27.02;;;10.00;;
49858;SDS011;35756;52.346;13.622;2022-12-24T08:12:44;28.33;;;10.52;;
49858;SDS011;35756;52.346;13.622;2022-12-24T08:15:12;27.48;;;11.40;;
49858;SDS011;35756;52.346;13.622;2022-12-24T08:17:38;27.33;;;10.80;;
49858;SDS011;35756;52.346;13.622;2022-12-24T08:20:03;24.05;;;10.23;;
49858;SDS011;35756;52.346;13.622;2022-12-24T08:22:29;27.42;;;10.23;;
49858;SDS011;35756;52.346;13.622;2022-12-24T08:24:54;32.28;;;11.40;;
49858;SDS011;35756;52.346;13.622;2022-12-24T08:27:20;29.90;;;10.90;;
49858;SDS011;35756;52.346;13.622;2022-12-24T08:29:45;24.52;;;10.63;;
49858;SDS011;35756;52.346;13.622;2022-12-24T08:32:10;24.33;;;10.05;;
49858;SDS011;35756;52.346;13.622;2022-12-24T08:34:36;27.65;;;11.45;;
49858;SDS011;35756;52.346;13.622;2022-12-24T08:37:01;32.13;;;12.13;;
49858;SDS011;35756;52.346;13.622;2022-12-24T08:39:26;29.25;;;11.15;;
49858;SDS011;35756;52.346;13.622;2022-12-24T08:41:51;24.60;;;10.50;;
49858;SDS011;35756;52.346;13.622;2022-12-24T08:44:17;28.55;;;10.43;;
49858;SDS011;35756;52.346;13.622;2022-12-24T08:46:42;25.05;;;11.73;;
49858;SDS011;35756;52.346;13.622;2022-12-24T08:49:07;23.00;;;10.40;;
49858;SDS011;35756;52.346;13.622;2022-12-24T08:51:33;24.40;;;10.63;;
49858;SDS011;35756;52.346;13.622;2022-12-24T08:53:58;29.10;;;11.82;;
49858;SDS011;35756;52.346;13.622;2022-12-24T08:56:23;27.90;;;11.60;;
49858;SDS011;35756;52.346;13.622;2022-12-24T08:58:49;26.05;;;10.60;;
49858;SDS011;35756;52.346;13.622;2022-12-24T09:01:15;26.08;;;11.38;;
49858;SDS011;35756;52.346;13.622;2022-12-24T09:03:43;24.42;;;11.13;;
49858;SDS011;35756;52.346;13.622;2022-12-24T09:06:09;28.38;;;12.15;;
49858;SDS011;35756;52.346;13.622;2022-12-24T09:08:35;26.92;;;12.75;;
49858;SDS011;35756;52.346;13.622;2022-12-24T09:11:02;29.17;;;11.85;;
49858;SDS011;35756;52.346;13.622;2022-12-24T09:13:28;33.83;;;14.05;;
49858;SDS011;35756;52.346;13.622;2022-12-24T09:15:54;31.63;;;13.57;;
49858;SDS011;35756;52.346;13.622;2022-12-24T09:18:19;30.60;;;12.45;;
49858;SDS011;35756;52.346;13.622;2022-12-24T09:20:44;30.65;;;13.27;;
49858;SDS011;35756;52.346;13.622;2022-12-24T09:23:10;26.05;;;11.73;;
49858;SDS011;35756;52.346;13.622;2022-12-24T09:25:39;23.98;;;11.25;;
49858;SDS011;35756;52.346;13.622;2022-12-24T09:28:05;22.65;;;11.15;;
49858;SDS011;35756;52.346;13.622;2022-12-24T09:30:30;28.42;;;10.93;;
49858;SDS011;35756;52.346;13.622;2022-12-24T09:32:55;24.45;;;10.30;;
49858;SDS011;35756;52.346;13.622;2022-12-24T09:35:21;24.15;;;11.20;;
49858;SDS011;35756;52.346;13.622;2022-12-24T09:37:46;25.30;;;12.18;;
49858;SDS011;35756;52.346;13.622;2022-12-24T09:40:17;27.90;;;11.63;;
49858;SDS011;35756;52.346;13.622;2022-12-24T09:42:50;24.25;;;10.88;;
49858;SDS011;35756;52.346;13.622;2022-12-24T09:45:17;22.08;;;9.50;;
49858;SDS011;35756;52.346;13.622;2022-12-24T09:47:54;21.90;;;10.13;;
49858;SDS011;35756;52.346;13.622;2022-12-24T09:50:25;18.90;;;9.05;;
49858;SDS011;35756;52.346;13.622;2022-12-24T09:55:48;16.70;;;8.05;;
49858;SDS011;35756;52.346;13.622;2022-12-24T09:58:19;15.23;;;7.05;;
49858;SDS011;35756;52.346;13.622;2022-12-24T10:00:53;16.08;;;8.02;;
49858;SDS011;35756;52.346;13.622;2022-12-24T10:03:20;14.50;;;8.30;;
49858;SDS011;35756;52.346;13.622;2022-12-24T10:08:52;13.57;;;7.22;;
49858;SDS011;35756;52.346;13.622;2022-12-24T10:16:41;12.52;;;6.60;;
49858;SDS011;35756;52.346;13.622;2022-12-24T10:22:33;12.35;;;6.68;;
49858;SDS011;35756;52.346;13.622;2022-12-24T10:25:20;11.80;;;6.50;;
49858;SDS011;35756;52.346;13.622;2022-12-24T10:27:47;10.63;;;6.30;;
49858;SDS011;35756;52.346;13.622;2022-12-24T10:30:19;12.80;;;5.93;;
49858;SDS011;35756;52.346;13.622;2022-12-24T10:37:41;12.60;;;6.13;;
49858;SDS011;35756;52.346;13.622;2022-12-24T10:40:11;13.40;;;6.75;;
49858;SDS011;35756;52.346;13.622;2022-12-24T10:42:40;12.63;;;6.30;;
49858;SDS011;35756;52.346;13.622;2022-12-24T10:45:13;13.77;;;6.22;;
49858;SDS011;35756;52.346;13.622;2022-12-24T10:47:42;11.80;;;6.35;;
49858;SDS011;35756;52.346;13.622;2022-12-24T10:50:12;12.23;;;6.00;;
49858;SDS011;35756;52.346;13.622;2022-12-24T10:52:41;10.63;;;5.63;;
49858;SDS011;35756;52.346;13.622;2022-12-24T10:57:40;10.93;;;5.40;;
49858;SDS011;35756;52.346;13.622;2022-12-24T11:00:05;9.95;;;5.10;;
49858;SDS011;35756;52.346;13.622;2022-12-24T11:02:37;11.02;;;5.22;;
49858;SDS011;35756;52.346;13.622;2022-12-24T11:05:04;9.43;;;4.80;;
49858;SDS011;35756;52.346;13.622;2022-12-24T11:07:31;5.80;;;3.47;;
49858;SDS011;35756;52.346;13.622;2022-12-24T11:12:33;7.07;;;3.90;;
49858;SDS011;35756;52.346;13.622;2022-12-24T11:15:15;5.90;;;3.40;;
49858;SDS011;35756;52.346;13.622;2022-12-24T11:17:42;6.18;;;3.17;;
49858;SDS011;35756;52.346;13.622;2022-12-24T11:20:21;6.03;;;3.38;;
49858;SDS011;35756;52.346;13.622;2022-12-24T11:22:50;4.97;;;3.25;;
49858;SDS011;35756;52.346;13.622;2022-12-24T11:25:19;5.55;;;3.33;;
49858;SDS011;35756;52.346;13.622;2022-12-24T11:27:46;4.43;;;2.78;;
49858;SDS011;35756;52.346;13.622;2022-12-24T11:32:43;5.30;;;3.00;;
49858;SDS011;35756;52.346;13.622;2022-12-24T11:35:20;4.53;;;2.95;;
49858;SDS011;35756;52.346;13.622;2022-12-24T11:40:24;5.38;;;2.95;;
49858;SDS011;35756;52.346;13.622;2022-12-24T11:42:52;4.30;;;2.80;;
49858;SDS011;35756;52.346;13.622;2022-12-24T11:45:24;4.22;;;2.67;;
49858;SDS011;35756;52.346;13.622;2022-12-24T11:47:50;3.35;;;2.33;;
49858;SDS011;35756;52.346;13.622;2022-12-24T12:00:40;5.97;;;2.75;;
49858;SDS011;35756;52.346;13.622;2022-12-24T12:03:12;5.15;;;3.33;;
49858;SDS011;35756;52.346;13.622;2022-12-24T12:05:47;5.38;;;3.22;;
49858;SDS011;35756;52.346;13.622;2022-12-24T12:08:14;6.15;;;3.58;;
49858;SDS011;35756;52.346;13.622;2022-12-24T12:10:42;5.82;;;3.38;;
49858;SDS011;35756;52.346;13.622;2022-12-24T12:13:10;6.30;;;3.50;;
49858;SDS011;35756;52.346;13.622;2022-12-24T12:15:42;6.72;;;3.72;;
49858;SDS011;35756;52.346;13.622;2022-12-24T12:20:42;6.80;;;3.40;;
49858;SDS011;35756;52.346;13.622;2022-12-24T12:23:17;8.43;;;3.30;;
49858;SDS011;35756;52.346;13.622;2022-12-24T12:25:48;5.20;;;3.47;;
49858;SDS011;35756;52.346;13.622;2022-12-24T12:28:27;6.63;;;4.18;;
49858;SDS011;35756;52.346;13.622;2022-12-24T12:31:01;7.90;;;4.00;;
49858;SDS011;35756;52.346;13.622;2022-12-24T12:33:30;7.13;;;3.70;;
49858;SDS011;35756;52.346;13.622;2022-12-24T12:36:00;5.05;;;3.42;;
49858;SDS011;35756;52.346;13.622;2022-12-24T12:38:26;8.43;;;3.58;;
49858;SDS011;35756;52.346;13.622;2022-12-24T12:46:48;6.65;;;3.95;;
49858;SDS011;35756;52.346;13.622;2022-12-24T12:49:22;10.52;;;4.65;;
49858;SDS011;35756;52.346;13.622;2022-12-24T12:51:58;10.05;;;4.95;;
49858;SDS011;35756;52.346;13.622;2022-12-24T12:54:30;11.88;;;5.07;;
49858;SDS011;35756;52.346;13.622;2022-12-24T12:57:05;17.10;;;5.40;;
49858;SDS011;35756;52.346;13.622;2022-12-24T12:59:34;14.75;;;4.47;;
49858;SDS011;35756;52.346;13.622;2022-12-24T13:02:08;14.82;;;4.78;;
49858;SDS011;35756;52.346;13.622;2022-12-24T13:10:52;11.50;;;4.50;;
49858;SDS011;35756;52.346;13.622;2022-12-24T13:21:32;14.48;;;5.20;;
49858;SDS011;35756;52.346;13.622;2022-12-24T13:24:17;16.10;;;4.82;;
49858;SDS011;35756;52.346;13.622;2022-12-24T13:27:00;20.38;;;5.18;;
49858;SDS011;35756;52.346;13.622;2022-12-24T13:29:28;19.92;;;4.30;;
49858;SDS011;35756;52.346;13.622;2022-12-24T13:34:50;12.32;;;4.60;;
49858;SDS011;35756;52.346;13.622;2022-12-24T13:42:46;17.98;;;5.82;;
49858;SDS011;35756;52.346;13.622;2022-12-24T13:53:02;10.50;;;4.57;;
49858;SDS011;35756;52.346;13.622;2022-12-24T13:55:29;11.07;;;4.68;;
49858;SDS011;35756;52.346;13.622;2022-12-24T13:58:01;13.85;;;5.05;;
49858;SDS011;35756;52.346;13.622;2022-12-24T14:05:43;17.05;;;4.60;;
49858;SDS011;35756;52.346;13.622;2022-12-24T14:08:12;15.15;;;4.82;;
49858;SDS011;35756;52.346;13.622;2022-12-24T14:10:41;16.85;;;5.50;;
49858;SDS011;35756;52.346;13.622;2022-12-24T14:16:07;16.23;;;5.13;;
49858;SDS011;35756;52.346;13.622;2022-12-24T14:18:37;12.05;;;5.07;;
49858;SDS011;35756;52.346;13.622;2022-12-24T14:21:04;16.17;;;4.55;;
49858;SDS011;35756;52.346;13.622;2022-12-24T14:23:41;18.70;;;4.75;;
49858;SDS011;35756;52.346;13.622;2022-12-24T14:26:19;17.17;;;4.88;;
49858;SDS011;35756;52.346;13.622;2022-12-24T14:28:52;20.67;;;5.38;;
49858;SDS011;35756;52.346;13.622;2022-12-24T14:31:19;20.13;;;4.88;;
49858;SDS011;35756;52.346;13.622;2022-12-24T14:33:45;18.17;;;4.63;;
49858;SDS011;35756;52.346;13.622;2022-12-24T14:36:11;18.08;;;5.93;;
49858;SDS011;35756;52.346;13.622;2022-12-24T14:38:42;20.05;;;4.88;;
49858;SDS011;35756;52.346;13.622;2022-12-24T14:41:18;17.88;;;5.43;;
49858;SDS011;35756;52.346;13.622;2022-12-24T14:44:03;15.43;;;5.50;;
49858;SDS011;35756;52.346;13.622;2022-12-24T14:46:31;19.10;;;5.18;;
49858;SDS011;35756;52.346;13.622;2022-12-24T14:49:03;22.00;;;6.13;;
49858;SDS011;35756;52.346;13.622;2022-12-24T14:54:37;17.85;;;5.93;;
49858;SDS011;35756;52.346;13.622;2022-12-24T14:59:48;19.08;;;5.40;;
49858;SDS011;35756;52.346;13.622;2022-12-24T15:02:37;17.67;;;5.85;;
49858;SDS011;35756;52.346;13.622;2022-12-24T15:05:10;13.25;;;5.03;;
49858;SDS011;35756;52.346;13.622;2022-12-24T15:08:11;83.35;;;9.23;;
49858;SDS011;35756;52.346;13.622;2022-12-24T15:10:40;16.00;;;4.88;;
49858;SDS011;35756;52.346;13.622;2022-12-24T15:15:45;12.13;;;4.57;;
49858;SDS011;35756;52.346;13.622;2022-12-24T15:18:21;11.90;;;4.53;;
49858;SDS011;35756;52.346;13.622;2022-12-24T15:20:51;18.88;;;5.05;;
49858;SDS011;35756;52.346;13.622;2022-12-24T15:23:19;14.32;;;4.57;;
49858;SDS011;35756;52.346;13.622;2022-12-24T15:25:45;66.55;;;7.95;;
49858;SDS011;35756;52.346;13.622;2022-12-24T15:28:17;33.50;;;6.25;;
49858;SDS011;35756;52.346;13.622;2022-12-24T15:30:43;13.40;;;5.28;;
49858;SDS011;35756;52.346;13.622;2022-12-24T15:33:09;11.85;;;4.88;;
49858;SDS011;35756;52.346;13.622;2022-12-24T15:35:48;13.18;;;4.80;;
49858;SDS011;35756;52.346;13.622;2022-12-24T15:38:23;11.88;;;5.50;;
49858;SDS011;35756;52.346;13.622;2022-12-24T15:40:51;22.33;;;7.93;;
49858;SDS011;35756;52.346;13.622;2022-12-24T15:43:17;13.95;;;7.32;;
49858;SDS011;35756;52.346;13.622;2022-12-24T15:45:43;19.77;;;8.00;;
49858;SDS011;35756;52.346;13.622;2022-12-24T15:48:09;22.92;;;9.70;;
49858;SDS011;35756;52.346;13.622;2022-12-24T15:50:36;21.40;;;9.80;;
49858;SDS011;35756;52.346;13.622;2022-12-24T15:53:06;19.02;;;9.05;;
49858;SDS011;35756;52.346;13.622;2022-12-24T15:58:36;20.23;;;8.48;;
49858;SDS011;35756;52.346;13.622;2022-12-24T16:03:38;23.77;;;9.23;;
49858;SDS011;35756;52.346;13.622;2022-12-24T16:06:05;24.85;;;10.68;;
49858;SDS011;35756;52.346;13.622;2022-12-24T16:08:36;30.00;;;11.05;;
49858;SDS011;35756;52.346;13.622;2022-12-24T16:14:03;74.00;;;15.63;;
49858;SDS011;35756;52.346;13.622;2022-12-24T16:16:42;27.42;;;10.82;;
49858;SDS011;35756;52.346;13.622;2022-12-24T16:19:15;66.45;;;15.75;;
49858;SDS011;35756;52.346;13.622;2022-12-24T16:21:43;31.42;;;11.50;;
49858;SDS011;35756;52.346;13.622;2022-12-24T16:24:14;38.00;;;13.32;;
49858;SDS011;35756;52.346;13.622;2022-12-24T16:26:45;23.60;;;11.15;;